Time;durP1;ratioP1;P1;durP2;ratioP2;P2;SDS_P1;SDS_P2;PMS_P1;PMS_P2;Temp;Humidity;BMP_temperature;BMP_pressure;BME280_temperature;BME280_humidity;BME280_pressure;Samples;Min_cycle;Max_cycle;Signal;HPM_P1;HPM_P2
2023/04/26 00:00:07;;;;;;;0.60;0.60;;;;;;;21.71;24.93;100738.53;4517852;28;20048;-61
2023/04/26 00:02:18;;;;;;;1.23;0.68;;;;;;;21.69;25.02;100735.22;4517014;28;20046;-61
2023/04/26 00:04:29;;;;;;;1.08;0.70;;;;;;;21.69;24.98;100738.09;4517983;28;20859;-60
2023/04/26 00:06:40;;;;;;;0.70;0.60;;;;;;;21.68;24.71;100731.50;4518295;28;20034;-61
2023/04/26 00:08:50;;;;;;;1.35;0.75;;;;;;;21.67;25.07;100741.34;4515983;28;20520;-61
2023/04/26 00:11:01;;;;;;;1.73;0.90;;;;;;;21.68;24.77;100737.25;4516980;28;20389;-61
2023/04/26 00:13:11;;;;;;;1.45;0.95;;;;;;;21.69;25.00;100740.97;4497919;28;20598;-61
2023/04/26 00:15:22;;;;;;;0.93;0.75;;;;;;;21.67;24.65;100741.34;4517999;28;20041;-61
2023/04/26 00:17:32;;;;;;;0.70;0.70;;;;;;;21.66;24.78;100736.78;4515703;28;20139;-61
2023/04/26 00:19:44;;;;;;;1.00;0.90;;;;;;;21.68;24.86;100731.50;4518022;28;20040;-60
2023/04/26 00:21:54;;;;;;;0.70;0.60;;;;;;;21.66;25.02;100739.66;4517231;28;20037;-61
2023/04/26 00:24:05;;;;;;;1.00;0.82;;;;;;;21.67;24.93;100741.34;4515224;28;20528;-60
2023/04/26 00:26:15;;;;;;;1.17;0.70;;;;;;;21.64;24.70;100736.34;4517837;28;20417;-60
2023/04/26 00:28:27;;;;;;;1.35;0.80;;;;;;;21.63;25.00;100739.56;4517391;28;20121;-61
2023/04/26 00:30:46;;;;;;;0.70;0.70;;;;;;;21.64;25.02;100742.09;4519706;28;20485;-61
2023/04/26 00:32:56;;;;;;;1.25;0.93;;;;;;;21.62;24.91;100732.16;4517699;28;20033;-60
2023/04/26 00:35:07;;;;;;;0.85;0.70;;;;;;;21.64;24.95;100747.81;4516826;28;20395;-61
2023/04/26 00:37:18;;;;;;;0.85;0.60;;;;;;;21.50;24.73;100715.84;4515978;28;20030;-61
2023/04/26 00:39:29;;;;;;;1.00;0.70;;;;;;;21.65;25.09;100742.88;4516437;28;20521;-60
2023/04/26 00:41:39;;;;;;;1.45;0.80;;;;;;;21.61;24.91;100742.78;4516260;28;20445;-61
2023/04/26 00:43:50;;;;;;;0.90;0.68;;;;;;;21.62;24.61;100741.59;4506720;28;20548;-61
2023/04/26 00:46:01;;;;;;;0.95;0.70;;;;;;;21.56;24.73;100727.91;4517614;28;20029;-61
2023/04/26 00:48:11;;;;;;;0.80;0.70;;;;;;;21.58;24.74;100737.78;4519191;28;20057;-61
2023/04/26 00:50:22;;;;;;;1.25;0.75;;;;;;;21.61;24.80;100737.06;4515388;28;20025;-61
2023/04/26 00:52:33;;;;;;;1.02;0.70;;;;;;;21.60;24.43;100741.13;4517393;28;20038;-61
2023/04/26 00:54:43;;;;;;;1.05;0.80;;;;;;;21.62;24.83;100735.03;4507711;28;20162;-61
2023/04/26 00:56:54;;;;;;;1.48;0.70;;;;;;;21.60;24.44;100738.25;4518256;28;20099;-60
2023/04/26 00:59:06;;;;;;;0.77;0.77;;;;;;;21.57;24.74;100730.41;4488492;28;21176;-61
2023/04/26 01:01:16;;;;;;;1.13;0.80;;;;;;;21.60;24.54;100732.53;4517944;28;20042;-61
2023/04/26 01:03:27;;;;;;;1.00;0.80;;;;;;;21.58;24.81;100723.44;4516167;28;20041;-61
2023/04/26 01:05:38;;;;;;;0.60;0.60;;;;;;;21.59;24.51;100730.88;4515737;28;20370;-61
2023/04/26 01:07:48;;;;;;;0.75;0.65;;;;;;;21.53;24.56;100729.44;4490907;28;20092;-61
2023/04/26 01:09:59;;;;;;;1.60;0.70;;;;;;;21.55;24.64;100727.06;4505391;28;20041;-60
2023/04/26 01:12:13;;;;;;;0.80;0.70;;;;;;;21.58;24.33;100734.91;4516942;28;20037;-61
2023/04/26 01:14:23;;;;;;;0.88;0.60;;;;;;;21.58;24.65;100732.06;4505754;28;20045;-61
2023/04/26 01:16:34;;;;;;;1.40;0.70;;;;;;;21.57;24.30;100738.16;4506296;28;20076;-61
2023/04/26 01:18:52;;;;;;;0.85;0.60;;;;;;;21.55;24.50;100735.66;4518039;28;20190;-61
2023/04/26 01:21:03;;;;;;;0.65;0.65;;;;;;;21.57;24.43;100736.13;4515572;28;20040;-61
2023/04/26 01:23:14;;;;;;;0.93;0.70;;;;;;;21.54;24.67;100731.13;4519749;28;20034;-61
2023/04/26 01:25:25;;;;;;;1.08;0.68;;;;;;;21.57;24.44;100741.88;4521101;28;20103;-60
2023/04/26 01:27:35;;;;;;;0.50;0.50;;;;;;;21.55;24.64;100738.53;4519227;28;20036;-61
2023/04/26 01:29:46;;;;;;;0.90;0.80;;;;;;;21.52;24.53;100733.53;4519812;28;20061;-61
2023/04/26 01:31:56;;;;;;;1.33;0.80;;;;;;;21.54;24.48;100734.00;4519982;28;20595;-61
2023/04/26 01:34:07;;;;;;;0.80;0.80;;;;;;;21.55;24.53;100735.66;4520452;28;20057;-60
2023/04/26 01:36:17;;;;;;;1.23;0.75;;;;;;;21.56;24.62;100736.50;4491398;28;20068;-61
2023/04/26 01:38:28;;;;;;;0.85;0.70;;;;;;;21.53;24.43;100735.19;4519021;28;20573;-61
2023/04/26 01:40:38;;;;;;;1.25;0.90;;;;;;;21.53;24.34;100743.81;4517847;28;20041;-61
2023/04/26 01:42:49;;;;;;;1.00;0.70;;;;;;;21.53;24.52;100737.25;4516405;28;20034;-61
2023/04/26 01:45:00;;;;;;;1.42;0.73;;;;;;;21.50;24.32;100733.06;4520010;28;20034;-61
2023/04/26 01:47:31;;;;;;;1.10;0.70;;;;;;;21.54;24.43;100734.00;4517731;28;21316;-61
2023/04/26 01:49:41;;;;;;;0.93;0.70;;;;;;;21.48;24.57;100729.75;4519298;28;20110;-60
2023/04/26 01:51:52;;;;;;;0.90;0.63;;;;;;;21.49;24.63;100734.28;4518436;28;20037;-61
2023/04/26 01:54:02;;;;;;;0.85;0.70;;;;;;;21.50;24.62;100730.19;4508452;28;20041;-61
2023/04/26 01:56:13;;;;;;;0.85;0.70;;;;;;;21.53;24.40;100735.19;4520084;28;20029;-61
2023/04/26 01:58:23;;;;;;;0.63;0.63;;;;;;;21.52;24.67;100738.44;4518043;28;20124;-61
2023/04/26 02:00:34;;;;;;;1.33;0.70;;;;;;;21.49;24.57;100734.28;4519691;28;20610;-60
2023/04/26 02:02:44;;;;;;;0.80;0.80;;;;;;;21.49;24.68;100734.28;4502490;28;20656;-61
2023/04/26 02:04:54;;;;;;;1.00;0.80;;;;;;;21.49;24.42;100733.44;4518440;28;20065;-61
2023/04/26 02:07:06;;;;;;;0.98;0.77;;;;;;;21.50;24.46;100738.00;4503126;28;20065;-61
2023/04/26 02:09:17;;;;;;;1.27;0.73;;;;;;;21.48;24.61;100732.63;4502530;28;20640;-61
2023/04/26 02:11:28;;;;;;;1.40;0.90;;;;;;;21.51;24.76;100739.66;4520815;28;20079;-60
2023/04/26 02:13:38;;;;;;;0.80;0.68;;;;;;;21.48;24.66;100738.38;4518870;28;20021;-61
2023/04/26 02:15:50;;;;;;;0.68;0.60;;;;;;;21.49;24.38;100740.03;4519719;28;20042;-60
2023/04/26 02:18:01;;;;;;;1.15;0.80;;;;;;;21.50;24.22;100735.94;4518660;28;20575;-61
2023/04/26 02:20:11;;;;;;;1.05;0.77;;;;;;;21.46;24.45;100735.03;4519559;28;20330;-61
2023/04/26 02:22:24;;;;;;;0.70;0.70;;;;;;;21.49;24.26;100742.91;4518719;28;20637;-61
2023/04/26 02:24:34;;;;;;;0.90;0.70;;;;;;;21.48;24.46;100741.25;4519562;28;20038;-60
2023/04/26 02:26:46;;;;;;;0.95;0.80;;;;;;;21.48;24.25;100738.38;4507331;28;20034;-61
2023/04/26 02:28:56;;;;;;;1.75;0.80;;;;;;;21.47;24.62;100738.75;4519037;28;20398;-61
2023/04/26 02:31:07;;;;;;;1.23;0.77;;;;;;;21.48;24.41;100741.25;4518097;28;20056;-60
2023/04/26 02:33:18;;;;;;;0.73;0.70;;;;;;;21.47;24.53;100733.81;4517889;28;20040;-61
2023/04/26 02:35:28;;;;;;;0.95;0.75;;;;;;;21.48;24.25;100741.25;4502265;28;20053;-61
2023/04/26 02:37:38;;;;;;;1.15;0.77;;;;;;;21.47;24.68;100742.44;4516878;28;20068;-61
2023/04/26 02:39:50;;;;;;;1.27;0.80;;;;;;;21.45;24.46;100741.13;4490504;28;20161;-61
2023/04/26 02:42:00;;;;;;;1.20;0.80;;;;;;;21.44;24.36;100743.16;4500627;28;20084;-61
2023/04/26 02:44:11;;;;;;;0.75;0.70;;;;;;;21.46;24.39;100737.06;4505713;28;20516;-60
2023/04/26 02:46:21;;;;;;;0.80;0.70;;;;;;;21.45;24.47;100744.00;4518458;28;20021;-60
2023/04/26 02:48:32;;;;;;;0.80;0.70;;;;;;;21.46;24.36;100746.50;4518441;28;20030;-60
2023/04/26 02:50:42;;;;;;;1.02;0.70;;;;;;;21.43;24.49;100747.25;4519637;28;20362;-60
2023/04/26 02:52:54;;;;;;;1.25;0.80;;;;;;;21.45;24.34;100744.84;4519338;28;20034;-60
2023/04/26 02:55:05;;;;;;;1.23;0.90;;;;;;;21.46;24.67;100749.38;4518034;28;20537;-60
2023/04/26 02:57:15;;;;;;;1.23;0.80;;;;;;;21.43;24.68;100741.50;4518318;28;20642;-60
2023/04/26 02:59:26;;;;;;;0.90;0.70;;;;;;;21.44;24.77;100746.03;4519071;28;20046;-60
2023/04/26 03:01:37;;;;;;;1.30;0.75;;;;;;;21.45;24.39;100744.00;4519393;28;20753;-61
2023/04/26 03:03:48;;;;;;;1.00;0.70;;;;;;;21.39;24.48;100731.13;4518180;28;20406;-60
2023/04/26 03:05:58;;;;;;;1.08;0.90;;;;;;;21.41;24.50;100731.56;4491446;28;20049;-60
2023/04/26 03:08:08;;;;;;;0.70;0.70;;;;;;;21.41;24.40;100731.56;4517340;28;20587;-61
2023/04/26 03:10:19;;;;;;;1.30;0.80;;;;;;;21.42;24.38;100741.88;4501550;28;20034;-61
2023/04/26 03:12:29;;;;;;;0.85;0.68;;;;;;;21.41;24.12;100740.19;4518986;28;20025;-61
2023/04/26 03:14:40;;;;;;;1.52;0.90;;;;;;;21.41;24.34;100746.78;4506671;28;20133;-61
2023/04/26 03:16:50;;;;;;;1.35;0.75;;;;;;;21.40;24.20;100750.88;4490897;28;20093;-61
2023/04/26 03:19:01;;;;;;;0.82;0.80;;;;;;;21.41;24.33;100748.81;4519509;28;20076;-61
2023/04/26 03:21:12;;;;;;;1.88;1.10;;;;;;;21.33;24.31;100727.69;4518573;28;20037;-61
2023/04/26 03:23:25;;;;;;;1.63;0.80;;;;;;;21.41;24.30;100743.91;4518357;28;20037;-60
2023/04/26 03:25:37;;;;;;;1.17;0.80;;;;;;;21.39;24.53;100740.56;4508423;28;20069;-60
2023/04/26 03:27:47;;;;;;;1.40;0.70;;;;;;;21.38;24.54;100735.19;4500125;28;20083;-61
2023/04/26 03:29:58;;;;;;;1.60;0.80;;;;;;;21.36;24.39;100735.56;4517440;28;20464;-61
2023/04/26 03:32:10;;;;;;;1.15;0.70;;;;;;;21.40;24.35;100747.16;4519316;28;20144;-62
2023/04/26 03:34:20;;;;;;;0.93;0.80;;;;;;;21.38;24.81;100738.91;4517329;28;20569;-59
2023/04/26 03:36:31;;;;;;;1.00;0.63;;;;;;;21.33;24.36;100730.56;4508227;28;20033;-59
2023/04/26 03:38:41;;;;;;;1.33;1.08;;;;;;;21.39;24.30;100739.75;4506866;28;20129;-60
2023/04/26 03:40:52;;;;;;;1.35;1.02;;;;;;;21.39;24.30;100731.13;4517573;28;20045;-59
2023/04/26 03:43:03;;;;;;;1.40;1.00;;;;;;;21.37;24.33;100734.38;4516859;28;20041;-60
2023/04/26 03:45:13;;;;;;;1.23;0.90;;;;;;;21.33;24.64;100724.81;4514446;28;20033;-59
2023/04/26 03:47:23;;;;;;;0.80;0.80;;;;;;;21.34;24.66;100726.50;4516416;28;20048;-59
2023/04/26 03:49:35;;;;;;;1.08;0.93;;;;;;;21.36;24.57;100738.44;4517977;28;20037;-60
2023/04/26 03:51:45;;;;;;;1.73;1.10;;;;;;;21.34;24.43;100723.63;4500891;28;20018;-62
2023/04/26 03:53:59;;;;;;;1.75;1.10;;;;;;;21.37;24.58;100733.53;4517112;28;20101;-67
2023/04/26 03:56:09;;;;;;;1.40;1.10;;;;;;;21.33;24.39;100727.69;4517783;28;20092;-60
2023/04/26 03:58:20;;;;;;;1.13;0.85;;;;;;;21.35;24.42;100731.03;4516847;28;20123;-62
2023/04/26 04:00:31;;;;;;;1.08;0.98;;;;;;;21.35;24.40;100736.78;4516177;28;20533;-60
2023/04/26 04:02:42;;;;;;;1.10;0.93;;;;;;;21.34;24.67;100732.25;4516297;28;20037;-59
2023/04/26 04:04:55;;;;;;;0.93;0.88;;;;;;;21.31;24.45;100727.22;4489246;28;20033;-59
2023/04/26 04:07:06;;;;;;;1.42;1.10;;;;;;;21.30;24.53;100725.56;4517734;28;20044;-60
2023/04/26 04:09:17;;;;;;;0.88;0.80;;;;;;;21.28;24.39;100730.03;4505882;28;20149;-60
2023/04/26 04:11:28;;;;;;;1.40;1.02;;;;;;;21.31;24.51;100735.84;4515287;28;20028;-59
2023/04/26 04:13:38;;;;;;;1.60;1.02;;;;;;;21.33;24.55;100736.31;4498887;28;20270;-60
2023/04/26 04:15:50;;;;;;;1.33;1.00;;;;;;;21.33;24.43;100738.34;4517609;28;20037;-60
2023/04/26 04:18:01;;;;;;;1.58;0.80;;;;;;;21.30;24.37;100730.47;4517387;28;20165;-60
2023/04/26 04:20:12;;;;;;;1.08;0.93;;;;;;;21.27;24.55;100731.19;4500712;28;20041;-59
2023/04/26 04:22:22;;;;;;;1.63;1.10;;;;;;;21.18;24.27;100710.47;4492092;28;20026;-60
2023/04/26 04:24:33;;;;;;;0.95;0.90;;;;;;;21.29;24.40;100729.66;4516408;28;20545;-59
2023/04/26 04:26:44;;;;;;;1.10;0.95;;;;;;;21.28;24.27;100725.09;4490134;28;20033;-60
2023/04/26 04:28:54;;;;;;;1.73;0.90;;;;;;;21.31;24.26;100732.16;4517160;28;20048;-60
2023/04/26 04:31:05;;;;;;;1.38;1.10;;;;;;;21.29;24.35;100735.38;4503838;28;20536;-60
2023/04/26 04:33:16;;;;;;;1.52;1.13;;;;;;;21.25;24.66;100734.44;4516291;28;20034;-60
2023/04/26 04:35:32;;;;;;;1.35;1.00;;;;;;;21.26;24.35;100726.69;4497820;28;21031;-61
2023/04/26 04:37:42;;;;;;;1.83;1.10;;;;;;;21.23;24.37;100728.22;4505273;28;20112;-60
2023/04/26 04:39:54;;;;;;;1.25;1.15;;;;;;;21.27;24.50;100742.69;4513371;28;20121;-61
2023/04/26 04:42:04;;;;;;;1.40;1.30;;;;;;;21.29;24.60;100746.03;4517360;28;20029;-61
2023/04/26 04:44:16;;;;;;;1.67;1.48;;;;;;;21.29;24.81;100746.88;4515852;28;20042;-61
2023/04/26 04:46:27;;;;;;;1.85;1.50;;;;;;;21.28;24.79;100748.06;4487490;28;20061;-60
2023/04/26 04:48:37;;;;;;;1.85;1.40;;;;;;;21.29;24.73;100746.03;4496686;28;20041;-60
2023/04/26 04:50:48;;;;;;;1.65;1.50;;;;;;;21.28;24.54;100744.38;4503733;28;20038;-60
2023/04/26 04:52:59;;;;;;;1.60;1.38;;;;;;;21.26;24.51;100739.00;4499670;28;20029;-61
2023/04/26 04:55:09;;;;;;;1.70;1.15;;;;;;;21.28;24.55;100739.44;4504192;28;20029;-60
2023/04/26 04:57:21;;;;;;;1.27;1.13;;;;;;;21.28;24.57;100750.94;4507390;28;20075;-60
2023/04/26 04:59:32;;;;;;;1.40;1.10;;;;;;;21.26;24.62;100750.50;4519024;28;20033;-60
2023/04/26 05:01:42;;;;;;;1.70;1.40;;;;;;;21.25;24.55;100745.94;4518248;28;20116;-60
2023/04/26 05:03:57;;;;;;;1.70;1.30;;;;;;;21.24;24.55;100750.00;4517002;28;20036;-61
2023/04/26 05:06:08;;;;;;;1.50;1.30;;;;;;;21.24;24.61;100755.75;4493275;28;20030;-60
2023/04/26 05:08:19;;;;;;;1.75;1.27;;;;;;;21.26;24.62;100758.25;4518404;28;20029;-61
2023/04/26 05:10:29;;;;;;;1.77;1.15;;;;;;;21.24;24.51;100755.75;4493940;28;20058;-60
2023/04/26 05:12:40;;;;;;;1.77;1.10;;;;;;;21.26;24.64;100761.13;4509934;28;20081;-62
2023/04/26 05:14:50;;;;;;;1.30;1.20;;;;;;;21.22;24.85;100763.88;4517569;28;20899;-60
2023/04/26 05:17:01;;;;;;;1.02;0.93;;;;;;;21.23;24.89;100768.41;4518514;28;20041;-60
2023/04/26 05:19:12;;;;;;;1.52;1.10;;;;;;;21.23;24.85;100759.81;4509474;28;20100;-60
2023/04/26 05:21:23;;;;;;;1.63;1.38;;;;;;;21.21;25.05;100767.13;4503222;28;20053;-60
2023/04/26 05:23:33;;;;;;;1.98;1.60;;;;;;;21.24;24.80;100767.22;4518611;28;20044;-61
2023/04/26 05:25:44;;;;;;;2.03;1.40;;;;;;;21.21;24.83;100765.09;4518065;28;20104;-60
2023/04/26 05:28:13;;;;;;;2.45;1.30;;;;;;;21.22;25.40;100775.38;4520922;28;20624;-60
2023/04/26 05:30:40;;;;;;;1.27;1.17;;;;;;;21.22;25.30;100780.28;4520256;28;20040;-60
2023/04/26 05:33:03;;;;;;;1.75;1.10;;;;;;;21.22;25.18;100765.91;4518462;28;20065;-61
2023/04/26 05:35:19;;;;;;;1.33;1.10;;;;;;;21.23;25.10;100776.22;4508422;28;20107;-61
2023/04/26 05:37:30;;;;;;;1.77;1.20;;;;;;;21.20;25.50;100776.94;4520539;28;20734;-60
2023/04/26 05:39:40;;;;;;;1.55;1.23;;;;;;;21.22;25.55;100781.13;4507358;28;20033;-61
2023/04/26 05:41:51;;;;;;;1.55;0.95;;;;;;;21.19;25.54;100784.72;4509466;28;20698;-61
2023/04/26 05:44:02;;;;;;;1.83;1.30;;;;;;;21.20;25.63;100783.50;4520287;28;20759;-60
2023/04/26 05:46:12;;;;;;;1.30;1.20;;;;;;;21.20;25.72;100789.25;4507505;28;20030;-60
2023/04/26 05:48:24;;;;;;;1.58;1.40;;;;;;;21.21;25.37;100792.97;4508386;28;20667;-61
2023/04/26 05:50:35;;;;;;;1.67;1.40;;;;;;;21.19;25.38;100793.34;4501066;28;20046;-60
2023/04/26 05:52:45;;;;;;;1.60;1.33;;;;;;;21.19;25.87;100793.34;4492019;28;20805;-60
2023/04/26 05:54:56;;;;;;;1.70;1.33;;;;;;;21.14;25.69;100784.97;4518574;28;20048;-61
2023/04/26 05:57:07;;;;;;;1.55;1.13;;;;;;;21.14;25.67;100784.97;4518411;28;20638;-61
2023/04/26 05:59:17;;;;;;;1.50;1.30;;;;;;;21.16;26.04;100790.34;4520089;28;20077;-61
2023/04/26 06:01:28;;;;;;;1.50;1.20;;;;;;;21.18;25.60;100791.69;4508509;28;20028;-61
2023/04/26 06:03:38;;;;;;;1.95;1.30;;;;;;;21.19;26.29;100796.19;4519096;28;20497;-61
2023/04/26 06:05:49;;;;;;;1.80;1.30;;;;;;;21.17;25.97;100792.84;4517683;28;20044;-61
2023/04/26 06:08:00;;;;;;;1.73;1.20;;;;;;;21.18;25.66;100802.31;4518262;28;20042;-60
2023/04/26 06:10:12;;;;;;;1.67;1.33;;;;;;;21.18;26.18;100796.56;4492495;28;20034;-60
2023/04/26 06:12:23;;;;;;;1.40;1.17;;;;;;;21.17;26.32;100800.66;4507551;28;20140;-61
2023/04/26 06:14:33;;;;;;;1.75;1.10;;;;;;;21.19;26.87;100803.97;4516055;28;20163;-60
2023/04/26 06:16:49;;;;;;;1.52;1.20;;;;;;;21.19;26.45;100801.09;4507480;28;20042;-60
2023/04/26 06:19:00;;;;;;;1.70;1.20;;;;;;;21.18;26.35;100803.16;4515216;28;21012;-61
2023/04/26 06:21:12;;;;;;;1.70;1.10;;;;;;;21.19;26.64;100799.06;4502465;28;20168;-61
2023/04/26 06:23:23;;;;;;;2.15;1.25;;;;;;;21.14;26.52;100798.50;4491196;28;20035;-61
2023/04/26 06:25:33;;;;;;;1.38;1.10;;;;;;;21.16;26.75;100805.56;4508536;28;20040;-60
2023/04/26 06:27:45;;;;;;;1.63;1.20;;;;;;;21.19;27.03;100810.56;4517084;28;20045;-60
2023/04/26 06:29:55;;;;;;;1.30;1.20;;;;;;;21.19;26.77;100821.19;4515435;28;20524;-60
2023/04/26 06:32:07;;;;;;;1.63;1.20;;;;;;;21.13;26.83;100811.19;4505244;28;20030;-60
2023/04/26 06:34:18;;;;;;;1.35;1.20;;;;;;;21.17;27.12;100818.69;4519021;28;20545;-61
2023/04/26 06:36:29;;;;;;;1.63;1.15;;;;;;;21.15;27.22;100821.13;4518965;28;20374;-61
2023/04/26 06:38:40;;;;;;;1.27;1.00;;;;;;;21.13;27.24;100812.03;4517642;28;20143;-62
2023/04/26 06:40:50;;;;;;;2.03;1.30;;;;;;;21.16;27.40;100822.78;4489732;28;20069;-61
2023/04/26 06:43:02;;;;;;;1.20;1.10;;;;;;;21.15;27.35;100814.53;4506280;28;20428;-63
2023/04/26 06:45:15;;;;;;;1.75;1.00;;;;;;;21.16;27.24;100828.50;4518457;28;20045;-61
2023/04/26 06:47:27;;;;;;;1.70;1.20;;;;;;;21.14;27.51;100813.69;4515979;28;20038;-61
2023/04/26 06:49:39;;;;;;;1.13;1.02;;;;;;;21.11;27.45;100808.69;4507216;28;20037;-62
2023/04/26 06:51:51;;;;;;;1.67;1.10;;;;;;;21.11;27.30;100810.72;4501907;28;20042;-61
2023/04/26 06:54:02;;;;;;;1.50;1.30;;;;;;;21.16;27.09;100825.66;4517365;28;20020;-61
2023/04/26 06:56:12;;;;;;;1.20;1.10;;;;;;;21.14;27.40;100819.44;4519453;28;20037;-62
2023/04/26 06:58:23;;;;;;;1.40;1.30;;;;;;;21.13;27.32;100826.38;4518941;28;20041;-62
2023/04/26 07:00:33;;;;;;;1.38;1.20;;;;;;;21.14;27.59;100832.94;4518786;28;20072;-61
2023/04/26 07:02:44;;;;;;;1.80;1.35;;;;;;;21.13;27.53;100835.00;4518002;28;20025;-61
2023/04/26 07:04:55;;;;;;;1.35;1.20;;;;;;;21.11;27.38;100831.63;4518063;28;20053;-61
2023/04/26 07:07:05;;;;;;;1.40;1.13;;;;;;;21.11;27.43;100834.50;4518795;28;20022;-61
2023/04/26 07:09:16;;;;;;;1.45;1.20;;;;;;;21.08;27.46;100829.50;4518441;28;20037;-61
2023/04/26 07:11:27;;;;;;;1.20;1.10;;;;;;;21.13;27.34;100835.00;4519506;28;20030;-61
2023/04/26 07:13:37;;;;;;;1.30;1.00;;;;;;;21.11;27.55;100836.53;4518359;28;20113;-61
2023/04/26 07:15:47;;;;;;;1.88;1.23;;;;;;;21.11;27.76;100834.50;4517687;28;20037;-61
2023/04/26 07:17:58;;;;;;;1.20;1.10;;;;;;;21.11;27.46;100842.28;4518782;28;20056;-61
2023/04/26 07:20:09;;;;;;;1.15;0.90;;;;;;;21.13;28.01;100845.63;4517454;28;20095;-62
2023/04/26 07:22:19;;;;;;;1.23;1.08;;;;;;;21.11;27.68;100831.63;4519563;28;20843;-61
2023/04/26 07:24:30;;;;;;;1.55;1.30;;;;;;;21.11;27.96;100834.50;4518494;28;20047;-62
2023/04/26 07:26:40;;;;;;;1.65;0.95;;;;;;;21.11;27.83;100840.25;4519788;28;20826;-61
2023/04/26 07:28:51;;;;;;;1.13;0.93;;;;;;;21.08;27.81;100834.41;4519828;28;20037;-62
2023/04/26 07:31:01;;;;;;;1.52;1.10;;;;;;;21.11;27.96;100834.50;4517696;28;20065;-61
2023/04/26 07:33:12;;;;;;;2.15;1.10;;;;;;;21.09;27.90;100828.28;4518282;28;20398;-62
2023/04/26 07:35:22;;;;;;;1.20;1.00;;;;;;;21.09;27.96;100834.03;4507176;28;20042;-61
2023/04/26 07:37:33;;;;;;;1.67;1.08;;;;;;;21.13;28.14;100831.28;4517691;28;20108;-61
2023/04/26 07:39:43;;;;;;;1.33;0.90;;;;;;;21.09;27.95;100831.16;4518451;28;20112;-61
2023/04/26 07:41:54;;;;;;;1.45;0.85;;;;;;;21.09;27.93;100836.91;4502257;28;20091;-62
2023/04/26 07:44:04;;;;;;;1.33;0.90;;;;;;;21.09;27.88;100838.97;4518388;28;20065;-62
2023/04/26 07:46:15;;;;;;;1.23;1.10;;;;;;;21.06;27.79;100823.28;4518110;28;20025;-61
2023/04/26 07:48:25;;;;;;;1.42;0.93;;;;;;;21.12;28.02;100836.16;4515200;28;20125;-61
2023/04/26 07:50:36;;;;;;;1.80;1.00;;;;;;;21.12;28.07;100830.44;4520757;28;20034;-62
2023/04/26 07:52:46;;;;;;;1.70;0.60;;;;;;;21.11;27.71;100823.03;4518895;28;20045;-61
2023/04/26 07:54:57;;;;;;;1.63;0.95;;;;;;;21.11;27.54;100825.91;4517959;28;20687;-62
2023/04/26 07:57:07;;;;;;;1.52;0.80;;;;;;;21.10;27.24;100832.84;4518543;28;20041;-62
2023/04/26 07:59:18;;;;;;;1.08;0.88;;;;;;;21.14;27.71;100830.06;4517558;28;20049;-61
2023/04/26 08:01:28;;;;;;;1.27;0.80;;;;;;;21.12;27.70;100833.28;4517213;28;20041;-62
2023/04/26 08:03:39;;;;;;;1.73;0.85;;;;;;;21.12;27.72;100826.75;4517801;28;20398;-61
2023/04/26 08:05:50;;;;;;;1.40;0.80;;;;;;;21.13;27.50;100834.16;4517656;28;20038;-61
2023/04/26 08:08:00;;;;;;;1.20;0.68;;;;;;;21.13;27.11;100829.25;4517840;28;20037;-61
2023/04/26 08:10:11;;;;;;;0.70;0.60;;;;;;;21.13;27.13;100829.25;4517393;28;20564;-61
2023/04/26 08:12:21;;;;;;;1.17;0.68;;;;;;;21.12;27.58;100816.06;4516381;28;20053;-61
2023/04/26 08:14:33;;;;;;;0.60;0.50;;;;;;;21.11;27.00;100813.56;4514833;28;20152;-60
2023/04/26 08:16:44;;;;;;;0.95;0.63;;;;;;;21.11;26.98;100817.28;4518926;28;20682;-61
2023/04/26 08:19:01;;;;;;;1.67;0.77;;;;;;;21.15;27.33;100821.13;4518416;28;20125;-60
2023/04/26 08:21:11;;;;;;;0.73;0.50;;;;;;;21.14;27.25;100812.84;4515674;28;20037;-61
2023/04/26 08:23:22;;;;;;;0.73;0.50;;;;;;;21.15;27.33;100815.38;4516134;28;20473;-61
2023/04/26 08:25:33;;;;;;;1.23;0.60;;;;;;;21.03;27.13;100798.19;4518093;28;20033;-61
2023/04/26 08:27:44;;;;;;;0.93;0.60;;;;;;;21.13;27.17;100817.78;4519616;28;20144;-61
2023/04/26 08:29:54;;;;;;;1.00;0.43;;;;;;;21.17;27.01;100820.75;4517458;28;20104;-60
2023/04/26 08:32:06;;;;;;;0.50;0.50;;;;;;;21.16;26.40;100827.66;4519446;28;20041;-61
2023/04/26 08:34:16;;;;;;;0.73;0.50;;;;;;;21.18;26.37;100819.53;4521709;28;20029;-60
2023/04/26 08:36:27;;;;;;;0.98;0.63;;;;;;;21.18;26.12;100817.50;4519848;28;20026;-61
2023/04/26 08:38:37;;;;;;;0.70;0.70;;;;;;;21.23;26.39;100822.97;4522045;28;20041;-61
2023/04/26 08:40:48;;;;;;;1.17;0.47;;;;;;;21.22;25.91;100820.47;4522734;28;20079;-62
2023/04/26 08:42:58;;;;;;;0.60;0.60;;;;;;;21.06;26.96;100788.84;4505885;28;20054;-61
2023/04/26 08:45:12;;;;;;;0.75;0.60;;;;;;;21.26;26.61;100828.00;4519515;28;20571;-62
2023/04/26 08:47:26;;;;;;;0.80;0.63;;;;;;;21.30;27.85;100828.06;4520743;28;20600;-62
2023/04/26 08:49:42;;;;;;;0.75;0.68;;;;;;;21.27;27.67;100811.59;4520540;28;20091;-63
2023/04/26 08:51:55;;;;;;;1.15;0.70;;;;;;;21.31;26.84;100813.34;4519004;28;20049;-61
2023/04/26 08:54:07;;;;;;;0.82;0.60;;;;;;;21.32;27.32;100822.81;4518649;28;20092;-59
2023/04/26 08:56:21;;;;;;;0.93;0.60;;;;;;;21.31;27.56;100813.34;4510092;28;20038;-60
2023/04/26 08:58:32;;;;;;;1.08;0.60;;;;;;;21.29;27.41;100814.94;4520804;28;20517;-60
2023/04/26 09:00:44;;;;;;;0.63;0.60;;;;;;;21.31;27.19;100812.53;4521282;28;20450;-60
2023/04/26 09:02:55;;;;;;;1.35;0.68;;;;;;;21.29;26.86;100815.78;4520349;28;20417;-60
2023/04/26 09:05:06;;;;;;;0.70;0.70;;;;;;;21.30;26.52;100811.69;4518012;28;20076;-60
2023/04/26 09:07:25;;;;;;;1.02;0.60;;;;;;;21.31;26.52;100819.09;4519831;28;21351;-59
2023/04/26 09:09:41;;;;;;;0.90;0.60;;;;;;;21.32;26.16;100820.78;4521198;28;20037;-60
2023/04/26 09:11:56;;;;;;;1.25;0.60;;;;;;;21.32;26.00;100822.81;4520721;28;20580;-60
2023/04/26 09:14:07;;;;;;;0.85;0.60;;;;;;;21.34;26.37;100823.28;4519125;28;20029;-60
2023/04/26 09:16:17;;;;;;;1.15;0.60;;;;;;;21.19;26.06;100799.06;4509243;28;20042;-60
2023/04/26 09:18:30;;;;;;;1.02;0.60;;;;;;;21.33;26.32;100828.19;4518474;28;20038;-60
2023/04/26 09:20:40;;;;;;;0.75;0.50;;;;;;;21.32;26.07;100815.03;4520072;28;20073;-59
2023/04/26 09:22:53;;;;;;;0.98;0.60;;;;;;;21.33;25.91;100819.56;4520254;28;20112;-60
2023/04/26 09:25:06;;;;;;;1.05;0.60;;;;;;;21.34;25.96;100827.00;4519110;28;20220;-60
2023/04/26 09:27:17;;;;;;;0.60;0.60;;;;;;;21.32;25.44;100820.78;4520151;28;20041;-60
2023/04/26 09:29:28;;;;;;;0.88;0.60;;;;;;;21.35;25.59;100824.94;4520276;28;20685;-60
2023/04/26 09:31:47;;;;;;;0.93;0.60;;;;;;;21.30;25.79;100822.34;4520856;28;21077;-60
2023/04/26 09:33:58;;;;;;;0.63;0.63;;;;;;;21.33;25.87;100825.31;4518295;28;20036;-60
2023/04/26 09:36:14;;;;;;;0.52;0.52;;;;;;;21.37;25.91;100822.56;4509068;28;20038;-61
2023/04/26 09:38:25;;;;;;;0.57;0.50;;;;;;;21.35;25.54;100831.53;4520372;28;20041;-60
2023/04/26 09:40:39;;;;;;;0.77;0.60;;;;;;;21.37;25.65;100822.56;4518847;28;20572;-60
2023/04/26 09:43:17;;;;;;;1.70;0.80;;;;;;;21.39;25.48;100823.84;4518226;28;20048;-60
2023/04/26 09:45:29;;;;;;;0.85;0.65;;;;;;;21.35;25.39;100820.03;4517237;28;21548;-60
2023/04/26 09:47:40;;;;;;;0.73;0.60;;;;;;;21.39;25.35;100815.22;4520026;28;20033;-60
2023/04/26 09:49:51;;;;;;;1.13;0.70;;;;;;;21.40;25.15;100822.66;4519803;28;20144;-60
2023/04/26 09:52:02;;;;;;;0.70;0.60;;;;;;;21.40;25.26;100828.41;4503377;28;20599;-60
2023/04/26 09:54:13;;;;;;;0.90;0.60;;;;;;;21.39;25.68;100818.09;4519268;28;20590;-60
2023/04/26 09:56:23;;;;;;;0.70;0.60;;;;;;;21.38;26.00;100818.47;4518039;28;20064;-60
2023/04/26 09:59:00;;;;;;;0.55;0.50;;;;;;;21.40;25.23;100825.53;4516205;28;20173;-60
2023/04/26 10:01:12;;;;;;;0.95;0.60;;;;;;;21.38;25.07;100822.19;4519995;28;20038;-60
2023/04/26 10:03:23;;;;;;;1.25;1.00;;;;;;;21.37;25.14;100811.91;4519938;28;20575;-60
2023/04/26 10:05:33;;;;;;;0.82;0.80;;;;;;;21.39;24.76;100815.22;4507000;28;20038;-60
2023/04/26 10:07:44;;;;;;;0.70;0.70;;;;;;;21.39;25.00;100820.97;4518763;28;20025;-60
2023/04/26 10:09:56;;;;;;;1.88;1.30;;;;;;;21.38;25.13;100822.19;4519948;28;20084;-60